< Cyclone 200002 2000 Season Cyclone 200004 >
Cyclone 200003 (KIRRILY)
General InformationTrack Information on Google MapsDetailed Wind InformationList of All Images || ResourceGoogle EarthGE AnimationAtom FeedGeoJSON
Detalied Best Track (Time Zone = UTC)
Year Month Day Hour Lat. Long. Pressure (hPa) Wind (kt) Class Image Chart
2000 1 24 04 -11.4 99.8 1000 27 2 Image --
2000 1 24 10 -11.4 101.0 1000 27 2 Image --
2000 1 24 16 -11.6 102.3 1000 27 2 Image --
2000 1 24 22 -12.0 103.5 1000 27 2 Image --
2000 1 25 04 -12.5 104.8 1000 27 2 Image --
2000 1 25 10 -12.9 106.2 1000 27 2 Image --
2000 1 25 16 -13.0 107.1 1000 27 2 Image --
2000 1 25 22 -13.3 108.3 1000 27 2 Image --
2000 1 26 04 -13.8 109.5 1000 27 2 Image --
2000 1 26 10 -14.7 110.4 998 29 2 Image --
2000 1 26 16 -15.4 111.1 995 35 3 Image --
2000 1 26 22 -16.2 111.9 995 35 3 Image --
2000 1 27 04 -16.7 112.4 995 35 3 Image --
2000 1 27 10 -16.9 112.4 990 41 3 Image --
2000 1 27 16 -17.4 111.5 985 49 4 Image --
2000 1 27 22 -17.8 110.5 985 49 4 Image --
2000 1 28 04 -18.2 110.0 985 49 4 Image --
2000 1 28 10 -18.7 109.6 985 49 4 Image --
2000 1 28 16 -19.1 109.1 985 49 4 Image --
2000 1 28 22 -19.6 108.4 980 54 4 Image --
2000 1 29 04 -20.1 107.8 975 60 4 Image --
2000 1 29 10 -20.6 107.2 975 60 4 Image --
2000 1 29 16 -21.2 106.7 975 60 4 Image --
2000 1 29 22 -21.6 106.2 975 60 4 Image --
2000 1 30 04 -22.1 105.7 980 54 4 Image --
2000 1 30 10 -23.0 105.6 980 54 4 Image --
2000 1 30 16 -23.2 105.6 985 49 4 Image --
2000 1 30 22 -23.4 105.5 990 41 3 Image --
2000 1 31 04 -23.5 105.4 990 41 3 Image --
2000 1 31 10 -23.4 105.4 995 35 3 Image --
2000 1 31 16 -23.0 105.1 1000 27 2 Image --
2000 2 1 22 -22.6 104.8 1000 27 2 Image --
< Cyclone 200002 2000 Season Cyclone 200004 >

Help